createdAt,value
2018-04-29T08:30:27.791Z,900.00
2018-04-29T08:31:27.698Z,832.50
2018-04-29T08:33:20.560Z,753.75
2018-04-29T08:34:20.553Z,742.50
2018-04-29T08:36:13.473Z,708.75
2018-04-29T08:37:13.511Z,680.63
2018-04-29T08:39:06.905Z,708.75
2018-04-29T08:40:06.865Z,708.75
2018-04-29T08:41:06.885Z,703.13
2018-04-29T08:42:06.907Z,703.13
2018-04-29T08:43:07.081Z,720.00
2018-04-29T08:44:06.802Z,731.25
2018-04-29T08:45:06.770Z,753.75
2018-04-29T08:46:06.763Z,748.13
2018-04-29T08:47:06.763Z,742.50
2018-04-29T08:48:06.763Z,843.75
2018-04-29T08:49:06.747Z,804.38
2018-04-29T08:50:06.770Z,843.75
2018-04-29T08:51:06.721Z,860.63
2018-04-29T08:52:06.724Z,866.25
2018-04-29T08:53:06.711Z,832.50
2018-04-29T08:54:06.711Z,978.75
2018-04-29T08:55:06.721Z,978.75
2018-04-29T08:56:06.803Z,961.88
2018-04-29T08:57:06.683Z,911.25
2018-04-29T08:58:06.667Z,855.00
2018-04-29T08:59:06.699Z,900.00
2018-04-29T09:00:06.683Z,860.63
2018-04-29T09:01:06.676Z,900.00
2018-04-29T09:02:06.650Z,793.13
2018-04-29T09:03:06.658Z,748.13
2018-04-29T09:04:06.651Z,781.88
2018-04-29T09:05:06.629Z,815.63
2018-04-29T09:06:06.619Z,787.50
2018-04-29T09:07:06.613Z,781.88
2018-04-29T09:08:06.610Z,753.75
2018-04-29T09:09:06.608Z,691.88
2018-04-29T09:10:06.602Z,663.75
2018-04-29T09:11:06.619Z,708.75
2018-04-29T09:12:06.609Z,618.75
2018-04-29T09:13:06.606Z,613.13
2018-04-29T09:14:06.580Z,613.13
2018-04-29T09:15:06.607Z,680.63
2018-04-29T09:16:06.580Z,624.38
2018-04-29T09:17:06.558Z,635.63
2018-04-29T09:18:06.571Z,675.00
2018-04-29T09:19:06.545Z,635.63
2018-04-29T09:20:06.535Z,652.50
2018-04-29T09:21:06.536Z,618.75
2018-04-29T09:22:06.526Z,601.88
2018-04-29T09:23:06.543Z,641.25
2018-04-29T09:24:06.542Z,680.63
2018-04-29T09:25:06.520Z,714.38
2018-04-29T09:26:06.518Z,748.13
2018-04-29T09:27:06.513Z,770.63
2018-04-29T09:28:06.494Z,776.25
2018-04-29T09:29:06.484Z,787.50
2018-04-29T09:30:06.548Z,810.00
2018-04-29T09:31:06.475Z,838.13
2018-04-29T09:32:06.475Z,826.88
2018-04-29T09:33:06.487Z,815.63
2018-04-29T09:34:06.456Z,804.38
2018-04-29T09:35:06.474Z,793.13
2018-04-29T09:36:06.465Z,849.38
2018-04-29T09:37:06.482Z,748.13
2018-04-29T09:38:06.429Z,686.25
2018-04-29T09:39:06.452Z,635.63
2018-04-29T09:40:06.419Z,624.38
2018-04-29T09:41:06.406Z,579.38
2018-04-29T09:42:06.398Z,680.63
2018-04-29T09:43:06.396Z,630.00
2018-04-29T09:44:06.390Z,500.63
2018-04-29T09:45:06.388Z,556.88
2018-04-29T09:46:06.391Z,534.38
2018-04-29T09:47:06.372Z,517.50
2018-04-29T09:48:06.356Z,517.50
2018-04-29T09:49:06.384Z,517.50
2018-04-29T09:50:06.349Z,517.50
2018-04-29T09:51:06.346Z,511.88
2018-04-29T09:52:06.339Z,506.25
2018-04-29T09:53:06.342Z,511.88
2018-04-29T09:54:06.332Z,517.50
2018-04-29T09:55:06.320Z,534.38
2018-04-29T09:56:06.307Z,534.38
2018-04-29T09:57:06.311Z,540.00
2018-04-29T09:58:06.307Z,545.63
2018-04-29T09:59:06.306Z,545.63
2018-04-29T10:00:06.320Z,551.25
2018-04-29T10:01:06.301Z,562.50
2018-04-29T10:02:06.279Z,573.75
2018-04-29T10:03:06.276Z,568.13
2018-04-29T10:04:06.275Z,573.75
2018-04-29T10:05:06.262Z,562.50
2018-04-29T10:06:06.281Z,568.13
2018-04-29T10:07:06.270Z,590.63
2018-04-29T10:08:06.243Z,596.25
2018-04-29T10:09:06.246Z,613.13
2018-04-29T10:10:06.239Z,630.00
2018-04-29T10:11:06.238Z,652.50
2018-04-29T10:12:06.228Z,675.00
2018-04-29T10:13:06.242Z,691.88
2018-04-29T10:14:06.217Z,720.00
2018-04-29T10:15:06.214Z,748.13
2018-04-29T10:16:06.201Z,776.25
2018-04-29T10:17:06.201Z,810.00
2018-04-29T10:18:06.205Z,843.75
2018-04-29T10:19:06.195Z,883.13
2018-04-29T10:20:06.195Z,939.38
2018-04-29T10:21:06.195Z,973.13
2018-04-29T10:22:06.179Z,1023.75
2018-04-29T10:23:06.203Z,1057.50
2018-04-29T10:24:06.182Z,1136.25
2018-04-29T10:25:06.170Z,1186.88
2018-04-29T10:26:06.177Z,1231.88
2018-04-29T10:27:06.166Z,1265.63
2018-04-29T10:28:06.169Z,1389.38
2018-04-29T10:29:06.167Z,1485.00
2018-04-29T10:30:06.167Z,1563.75
2018-04-29T10:31:06.158Z,1597.50
2018-04-29T10:32:06.157Z,1625.63
2018-04-29T10:33:06.205Z,1659.38
2018-04-29T10:34:06.174Z,1670.63
2018-04-29T10:35:06.153Z,1755.00
2018-04-29T10:36:06.154Z,1816.88
2018-04-29T10:37:06.161Z,1839.38
2018-04-29T10:38:06.145Z,1850.63
2018-04-29T10:39:06.147Z,1850.63
2018-04-29T10:40:06.139Z,1873.13
2018-04-29T10:41:06.193Z,1895.63
2018-04-29T10:42:06.170Z,1822.50
2018-04-29T10:43:06.572Z,1788.75
2018-04-29T10:44:06.131Z,1766.25
2018-04-29T10:45:06.138Z,1743.75
2018-04-29T10:46:06.128Z,1710.00
2018-04-29T10:47:06.145Z,1698.75
2018-04-29T10:48:06.122Z,1648.13
2018-04-29T10:49:06.144Z,1659.38
2018-04-29T10:50:06.120Z,1659.38
2018-04-29T10:51:06.119Z,1749.38
2018-04-29T10:52:06.119Z,1575.00
2018-04-29T10:53:06.141Z,1710.00
2018-04-29T10:54:06.180Z,1766.25
2018-04-29T10:55:06.109Z,1794.38
2018-04-29T10:56:06.117Z,1766.25
2018-04-29T10:57:06.125Z,1771.88
2018-04-29T10:58:06.110Z,1805.63
2018-04-29T10:59:06.106Z,1811.25
2018-04-29T11:00:06.109Z,1811.25
2018-04-29T11:01:06.103Z,1698.75
2018-04-29T11:02:06.106Z,1788.75
2018-04-29T11:03:06.106Z,1760.63
2018-04-29T11:04:06.129Z,1760.63
2018-04-29T11:05:06.110Z,1845.00
2018-04-29T11:06:06.103Z,1771.88
2018-04-29T11:07:06.119Z,1642.50
2018-04-29T11:08:06.116Z,1951.88
2018-04-29T11:09:06.100Z,1918.13
2018-04-29T11:10:06.116Z,2030.63
2018-04-29T11:11:06.113Z,2120.63
2018-04-29T11:12:06.109Z,2137.50
2018-04-29T11:13:06.109Z,2103.75
2018-04-29T11:14:06.116Z,2176.88
2018-04-29T11:15:06.120Z,2025.00
2018-04-29T11:16:06.127Z,2070.00
2018-04-29T11:17:06.125Z,2340.00
2018-04-29T11:18:06.126Z,2790.00
2018-04-29T11:19:06.132Z,5242.50
2018-04-29T11:20:06.132Z,2891.25
2018-04-29T11:21:06.135Z,5158.13
2018-04-29T11:22:06.220Z,2340.00
2018-04-29T11:23:06.138Z,2368.13
2018-04-29T11:24:06.138Z,2536.88
2018-04-29T11:25:06.164Z,3166.88
2018-04-29T11:26:06.144Z,3189.38
2018-04-29T11:27:06.141Z,4162.50
2018-04-29T11:28:06.142Z,2368.13
2018-04-29T11:29:06.152Z,5270.63
2018-04-29T11:30:06.175Z,2863.13
2018-04-29T11:31:06.154Z,3003.75
2018-04-29T11:32:06.191Z,3487.50
2018-04-29T11:33:06.216Z,2030.63
2018-04-29T11:34:06.161Z,1620.00
2018-04-29T11:35:06.164Z,1591.88
2018-04-29T11:36:06.154Z,1884.38
2018-04-29T11:37:06.157Z,1906.88
2018-04-29T11:38:06.199Z,1648.13
2018-04-29T11:39:06.177Z,1389.38
2018-04-29T11:40:06.176Z,1383.75
2018-04-29T11:41:06.164Z,1372.50
2018-04-29T11:42:06.167Z,1400.63
2018-04-29T11:43:06.164Z,1524.38
2018-04-29T11:44:06.167Z,1681.88
2018-04-29T11:45:06.180Z,1704.38
2018-04-29T11:46:06.183Z,2739.38
2018-04-29T11:47:06.164Z,2570.63
2018-04-29T11:48:06.160Z,3296.25
2018-04-29T11:49:06.164Z,3060.00
2018-04-29T11:50:06.158Z,4095.00
2018-04-29T11:51:06.158Z,5518.13
2018-04-29T11:52:06.161Z,5456.25
2018-04-29T11:53:06.166Z,5422.50
2018-04-29T11:54:06.157Z,5484.38
2018-04-29T11:55:06.154Z,5158.13
2018-04-29T11:56:06.164Z,4978.13
2018-04-29T11:57:06.157Z,4415.63
2018-04-29T11:58:06.167Z,3600.00
2018-04-29T11:59:06.160Z,5574.38
2018-04-29T12:00:06.173Z,3678.75
2018-04-29T12:01:06.173Z,3695.63
2018-04-29T12:02:06.199Z,3892.50
2018-04-29T12:03:06.170Z,5310.00
2018-04-29T12:04:06.174Z,5276.25
2018-04-29T12:05:06.186Z,5096.25
2018-04-29T12:06:06.176Z,4933.13
2018-04-29T12:07:06.190Z,4927.50
2018-04-29T12:08:06.183Z,4747.50
2018-04-29T12:09:06.189Z,4736.25
2018-04-29T12:10:06.199Z,4781.25
2018-04-29T12:11:06.215Z,4775.63
2018-04-29T12:12:06.196Z,4753.13
2018-04-29T12:13:06.210Z,4736.25
2018-04-29T12:14:06.216Z,4674.38
2018-04-29T12:15:06.229Z,4860.00
2018-04-29T12:16:06.227Z,4899.38
2018-04-29T12:17:06.224Z,4786.88
2018-04-29T12:18:06.237Z,4882.50
2018-04-29T12:19:15.384Z,4921.88
2018-04-29T12:20:15.433Z,5073.75
2018-04-29T12:21:15.414Z,5062.50
2018-04-29T12:22:15.385Z,4916.25
2018-04-29T12:23:15.422Z,4933.13
2018-04-29T12:24:15.388Z,4961.25
2018-04-29T12:25:15.394Z,4972.50
2018-04-29T12:26:15.394Z,4860.00
2018-04-29T12:27:15.400Z,4961.25
2018-04-29T12:28:15.418Z,4927.50
2018-04-29T12:29:15.419Z,4831.88
2018-04-29T12:30:15.425Z,4899.38
2018-04-29T12:31:15.445Z,4888.13
2018-04-29T12:32:15.432Z,4803.75
2018-04-29T12:33:15.442Z,4933.13
2018-04-29T12:34:15.442Z,5034.38
2018-04-29T12:35:15.455Z,4961.25
2018-04-29T12:36:15.458Z,4798.13
2018-04-29T12:37:15.461Z,4584.38
2018-04-29T12:38:15.468Z,4623.75
2018-04-29T12:39:15.497Z,4640.63
2018-04-29T12:40:15.481Z,4663.13
2018-04-29T12:41:15.491Z,4320.00
2018-04-29T12:42:15.535Z,4320.00
2018-04-29T12:43:15.510Z,4471.88
2018-04-29T12:44:15.513Z,4471.88
2018-04-29T12:45:15.520Z,4331.25
2018-04-29T12:46:15.530Z,4111.88
2018-04-29T12:47:15.540Z,3971.25
2018-04-29T12:48:15.536Z,3965.63
2018-04-29T12:49:15.547Z,4635.00
2018-04-29T12:50:15.553Z,4505.63
2018-04-29T12:51:15.562Z,4246.88
2018-04-29T12:52:15.628Z,4111.88
2018-04-29T12:53:15.568Z,4117.50
2018-04-29T12:54:15.580Z,4483.13
2018-04-29T12:55:15.581Z,4618.13
2018-04-29T12:56:15.592Z,4556.25
2018-04-29T12:57:15.594Z,4578.75
2018-04-29T12:58:15.597Z,4573.13
2018-04-29T12:59:15.611Z,4438.13
2018-04-29T13:00:15.681Z,4460.63
2018-04-29T13:01:15.623Z,4426.88
2018-04-29T13:02:15.623Z,4173.75
2018-04-29T13:03:15.629Z,4381.88
2018-04-29T13:04:15.634Z,4410.00
2018-04-29T13:05:15.639Z,4235.63
2018-04-29T13:06:15.652Z,4190.63
2018-04-29T13:07:15.649Z,4241.25
2018-04-29T13:08:15.669Z,4303.13
2018-04-29T13:09:15.672Z,4381.88
2018-04-29T13:10:15.670Z,4252.50
2018-04-29T13:11:15.680Z,4179.38
2018-04-29T13:12:15.703Z,4286.25
2018-04-29T13:13:15.694Z,4263.75
2018-04-29T13:14:15.696Z,3982.50
2018-04-29T13:15:15.706Z,3898.13
2018-04-29T13:16:15.709Z,3892.50
2018-04-29T13:17:15.745Z,3903.75
2018-04-29T13:18:15.754Z,3751.88
2018-04-29T13:19:15.738Z,3825.00
2018-04-29T13:20:15.746Z,3993.75
2018-04-29T13:21:15.747Z,3976.88
2018-04-29T13:22:15.757Z,4353.75
2018-04-29T13:23:15.779Z,4241.25
2018-04-29T13:24:15.811Z,3521.25
2018-04-29T13:25:15.776Z,3673.13
2018-04-29T13:26:15.809Z,3746.25
2018-04-29T13:27:15.784Z,4173.75
2018-04-29T13:28:15.782Z,4151.25
2018-04-29T13:29:15.789Z,3926.25
2018-04-29T13:30:15.796Z,3746.25
2018-04-29T13:31:15.798Z,3639.38
2018-04-29T13:32:15.822Z,3493.13
2018-04-29T13:33:15.805Z,3628.13
2018-04-29T13:34:15.822Z,3836.25
2018-04-29T13:35:15.821Z,3796.88
2018-04-29T13:36:15.828Z,3690.00
2018-04-29T13:37:15.840Z,3138.75
2018-04-29T13:38:15.844Z,2908.13
2018-04-29T13:39:15.844Z,2311.88
2018-04-29T13:40:15.843Z,3285.00
2018-04-29T13:41:15.856Z,3138.75
2018-04-29T13:42:15.891Z,3223.13
2018-04-29T13:43:15.860Z,3346.88
2018-04-29T13:44:15.869Z,3465.00
2018-04-29T13:45:15.883Z,3667.50
2018-04-29T13:46:15.876Z,3673.13
2018-04-29T13:47:15.882Z,3864.38
2018-04-29T13:48:15.892Z,4168.13
2018-04-29T13:49:15.885Z,3735.00
2018-04-29T13:50:15.913Z,2812.50
2018-04-29T13:51:15.911Z,3442.50
2018-04-29T13:52:16.030Z,3088.13
2018-04-29T13:53:15.904Z,3166.88
2018-04-29T13:54:15.908Z,3015.00
2018-04-29T13:55:15.917Z,3048.75
2018-04-29T13:56:15.924Z,3054.38
2018-04-29T13:57:15.920Z,2784.38
2018-04-29T13:58:15.927Z,3065.63
2018-04-29T13:59:15.928Z,3189.38
2018-04-29T14:00:15.939Z,3065.63
2018-04-29T14:01:15.933Z,3301.88
2018-04-29T14:02:15.949Z,4111.88
2018-04-29T14:03:15.980Z,3841.88
2018-04-29T14:04:15.945Z,3279.38
2018-04-29T14:05:15.947Z,3093.75
2018-04-29T14:06:15.959Z,2925.00
2018-04-29T14:07:15.978Z,2756.25
2018-04-29T14:08:15.958Z,2970.00
2018-04-29T14:09:15.962Z,2705.63
2018-04-29T14:10:15.975Z,2733.75
2018-04-29T14:11:15.965Z,2278.13
2018-04-29T14:12:15.991Z,2323.13
2018-04-29T14:13:15.981Z,2683.13
2018-04-29T14:14:15.981Z,2733.75
2018-04-29T14:15:15.994Z,2593.13
2018-04-29T14:16:16.010Z,2722.50
2018-04-29T14:17:15.989Z,2655.00
2018-04-29T14:18:15.990Z,2199.38
2018-04-29T14:19:15.991Z,2041.88
2018-04-29T14:20:15.988Z,2176.88
2018-04-29T14:21:16.018Z,2514.38
2018-04-29T14:22:16.048Z,2818.13
2018-04-29T14:23:16.000Z,2671.88
2018-04-29T14:24:16.007Z,2452.50
2018-04-29T14:25:16.018Z,2593.13
2018-04-29T14:26:16.013Z,2446.88
2018-04-29T14:27:16.020Z,3099.38
2018-04-29T14:28:16.004Z,2941.88
2018-04-29T14:29:16.029Z,3071.25
2018-04-29T14:30:16.010Z,2941.88
2018-04-29T14:31:16.067Z,2700.00
2018-04-29T14:32:16.020Z,2261.25
2018-04-29T14:33:16.009Z,2165.63
2018-04-29T14:34:16.013Z,2227.50
2018-04-29T14:35:16.020Z,2368.13
2018-04-29T14:36:16.017Z,2576.25
2018-04-29T14:37:16.019Z,2868.75
2018-04-29T14:38:16.025Z,2756.25
2018-04-29T14:39:16.019Z,2975.63
2018-04-29T14:40:16.029Z,3324.38
2018-04-29T14:41:16.036Z,2733.75
2018-04-29T14:42:16.040Z,3639.38
2018-04-29T14:43:16.088Z,3420.00
2018-04-29T14:44:16.038Z,3740.63
2018-04-29T14:45:16.032Z,3678.75
2018-04-29T14:46:16.041Z,3746.25
2018-04-29T14:47:16.035Z,3234.38
2018-04-29T14:48:16.051Z,2975.63
2018-04-29T14:49:16.038Z,2688.75
2018-04-29T14:50:16.051Z,2508.75
2018-04-29T14:51:16.045Z,2896.88
2018-04-29T14:52:16.042Z,2261.25
2018-04-29T14:53:16.044Z,2368.13
2018-04-29T14:54:16.048Z,2008.13
2018-04-29T14:55:16.067Z,1805.63
2018-04-29T14:56:16.054Z,2143.13
2018-04-29T14:57:16.061Z,2300.63
2018-04-29T14:58:16.064Z,2368.13
2018-04-29T14:59:16.064Z,2424.38
2018-04-29T15:00:16.072Z,2733.75
2018-04-29T15:01:16.123Z,2795.63
2018-04-29T15:02:16.078Z,2340.00
2018-04-29T15:03:16.085Z,2216.25
2018-04-29T15:04:16.067Z,2137.50
2018-04-29T15:05:16.075Z,2188.13
2018-04-29T15:06:16.067Z,2295.00
2018-04-29T15:07:16.064Z,1951.88
2018-04-29T15:08:16.072Z,1783.13
2018-04-29T15:09:16.070Z,1428.75
2018-04-29T15:10:16.072Z,1316.25
2018-04-29T15:11:16.078Z,1198.13
2018-04-29T15:12:16.097Z,1130.63
2018-04-29T15:13:16.094Z,1231.88
2018-04-29T15:14:16.072Z,1136.25
2018-04-29T15:15:16.076Z,1001.25
2018-04-29T15:16:16.075Z,928.13
2018-04-29T15:17:16.078Z,1040.63
2018-04-29T15:18:16.075Z,1068.75
2018-04-29T15:19:16.070Z,911.25
2018-04-29T15:20:16.067Z,826.88
2018-04-29T15:21:16.070Z,815.63
2018-04-29T15:22:16.068Z,843.75
2018-04-29T15:23:16.092Z,911.25
2018-04-29T15:24:16.072Z,978.75
2018-04-29T15:25:16.064Z,1113.75
2018-04-29T15:26:16.064Z,1108.13
2018-04-29T15:27:16.064Z,1074.38
2018-04-29T15:28:16.058Z,1102.50
2018-04-29T15:29:16.058Z,1119.38
2018-04-29T15:30:16.055Z,1164.38
2018-04-29T15:31:16.051Z,1108.13
2018-04-29T15:32:16.048Z,1198.13
2018-04-29T15:33:16.052Z,1456.88
2018-04-29T15:34:16.045Z,1389.38
2018-04-29T15:35:16.067Z,1125.00
2018-04-29T15:36:16.039Z,1293.75
2018-04-29T15:37:16.052Z,1428.75
2018-04-29T15:38:16.039Z,1423.13
2018-04-29T15:39:16.033Z,1485.00
2018-04-29T15:40:16.036Z,1468.13
2018-04-29T15:41:16.029Z,1563.75
2018-04-29T15:42:16.026Z,1524.38
2018-04-29T15:43:16.033Z,1316.25
2018-04-29T15:44:16.029Z,1366.88
2018-04-29T15:45:16.027Z,1243.13
2018-04-29T15:46:16.019Z,1338.75
2018-04-29T15:47:16.016Z,1164.38
2018-04-29T15:48:16.020Z,1035.00
2018-04-29T15:49:16.011Z,933.75
2018-04-29T15:50:16.015Z,883.13
2018-04-29T15:51:16.008Z,849.38
2018-04-29T15:52:16.019Z,804.38
2018-04-29T15:53:16.011Z,781.88
2018-04-29T15:54:16.020Z,742.50
2018-04-29T15:55:15.998Z,708.75
2018-04-29T15:56:15.998Z,708.75
2018-04-29T15:57:16.000Z,720.00
2018-04-29T15:58:16.000Z,736.88
2018-04-29T15:59:15.997Z,697.50
2018-04-29T16:00:15.988Z,675.00
2018-04-29T16:01:15.987Z,652.50
2018-04-29T16:02:15.981Z,618.75
2018-04-29T16:03:15.991Z,601.88
2018-04-29T16:04:15.975Z,607.50
2018-04-29T16:05:15.971Z,635.63
2018-04-29T16:06:15.969Z,798.75
2018-04-29T16:07:15.969Z,877.50
2018-04-29T16:08:15.971Z,669.38
2018-04-29T16:09:15.961Z,624.38
2018-04-29T16:10:15.962Z,635.63
2018-04-29T16:11:15.955Z,736.88
2018-04-29T16:12:16.000Z,933.75
2018-04-29T16:13:15.952Z,1029.38
2018-04-29T16:14:15.950Z,967.50
2018-04-29T16:15:15.936Z,781.88
2018-04-29T16:16:15.933Z,630.00
2018-04-29T16:17:15.946Z,551.25
2018-04-29T16:18:15.936Z,523.13
2018-04-29T16:19:15.942Z,506.25
2018-04-29T16:20:15.930Z,483.75
2018-04-29T16:21:15.920Z,461.25
2018-04-29T16:22:15.914Z,433.13
2018-04-29T16:23:15.914Z,410.63
2018-04-29T16:24:15.904Z,393.75
2018-04-29T16:25:15.900Z,382.50
2018-04-29T16:26:15.901Z,365.63
2018-04-29T16:27:15.894Z,360.00
2018-04-29T16:28:15.904Z,360.00
2018-04-29T16:29:15.885Z,360.00
2018-04-29T16:30:15.882Z,360.00
2018-04-29T16:31:15.888Z,371.25
2018-04-29T16:32:15.875Z,393.75
2018-04-29T16:33:15.875Z,405.00
2018-04-29T16:34:15.872Z,410.63
2018-04-29T16:35:15.872Z,416.25
2018-04-29T16:36:15.861Z,421.88
2018-04-29T16:37:15.850Z,416.25
2018-04-29T16:38:15.869Z,421.88
2018-04-29T16:39:15.840Z,433.13
2018-04-29T16:40:15.837Z,450.00
2018-04-29T16:41:15.840Z,455.63
2018-04-29T16:42:15.832Z,438.75
2018-04-29T16:43:15.825Z,433.13
2018-04-29T16:44:15.825Z,427.50
2018-04-29T16:45:15.833Z,416.25
2018-04-29T16:46:15.808Z,410.63
2018-04-29T16:47:15.811Z,405.00
2018-04-29T16:48:15.858Z,410.63
2018-04-29T16:49:15.798Z,416.25
2018-04-29T16:50:15.805Z,393.75
2018-04-29T16:51:15.792Z,382.50
2018-04-29T16:52:15.792Z,382.50
2018-04-29T16:53:15.779Z,371.25
2018-04-29T16:54:15.769Z,371.25
2018-04-29T16:55:15.769Z,371.25
2018-04-29T16:56:15.764Z,371.25
2018-04-29T16:57:15.768Z,376.88
2018-04-29T16:58:15.753Z,376.88
2018-04-29T16:59:15.744Z,376.88
2018-04-29T17:00:15.737Z,371.25
2018-04-29T17:01:15.743Z,371.25
2018-04-29T17:02:15.760Z,371.25
2018-04-29T17:03:15.728Z,376.88
2018-04-29T17:04:15.724Z,371.25
2018-04-29T17:05:15.718Z,376.88
2018-04-29T17:06:15.716Z,376.88
2018-04-29T17:07:15.719Z,382.50
2018-04-29T17:08:15.700Z,371.25
2018-04-29T17:09:15.699Z,371.25
2018-04-29T17:10:15.686Z,365.63
2018-04-29T17:11:15.684Z,360.00
2018-04-29T17:12:15.677Z,348.75
2018-04-29T17:13:15.670Z,337.50
2018-04-29T17:14:15.667Z,326.25
2018-04-29T17:15:15.669Z,303.75
2018-04-29T17:16:15.668Z,292.50
2018-04-29T17:17:15.672Z,275.63
2018-04-29T17:18:15.646Z,264.38
2018-04-29T17:19:15.664Z,258.75
2018-04-29T17:20:15.632Z,253.13
2018-04-29T17:21:15.641Z,247.50
2018-04-29T17:22:15.639Z,247.50
2018-04-29T17:23:15.635Z,247.50
2018-04-29T17:24:15.636Z,253.13
2018-04-29T17:25:15.609Z,264.38
2018-04-29T17:26:15.604Z,264.38
2018-04-29T17:27:15.597Z,264.38
2018-04-29T17:28:15.587Z,264.38
2018-04-29T17:29:15.641Z,264.38
2018-04-29T17:30:15.585Z,275.63
2018-04-29T17:31:15.566Z,270.00
2018-04-29T17:32:15.567Z,270.00
2018-04-29T17:33:15.558Z,275.63
2018-04-29T17:34:15.557Z,281.25
2018-04-29T17:35:15.547Z,286.88
2018-04-29T17:36:15.549Z,286.88
2018-04-29T17:37:15.536Z,286.88
2018-04-29T17:38:15.529Z,292.50
2018-04-29T17:39:15.520Z,292.50
2018-04-29T17:40:15.526Z,292.50
2018-04-29T17:41:15.517Z,292.50
2018-04-29T17:42:15.507Z,292.50
2018-04-29T17:43:15.506Z,292.50
2018-04-29T17:44:15.534Z,292.50
2018-04-29T17:45:15.498Z,292.50
2018-04-29T17:46:15.476Z,292.50
2018-04-29T17:47:15.480Z,286.88
2018-04-29T17:48:15.465Z,298.13
2018-04-29T17:49:15.459Z,286.88
2018-04-29T17:50:15.453Z,281.25
2018-04-29T17:51:15.450Z,275.63
2018-04-29T17:52:15.443Z,270.00
2018-04-29T17:53:15.446Z,264.38
2018-04-29T17:54:15.434Z,253.13
2018-04-29T17:55:15.436Z,247.50
2018-04-29T17:56:15.420Z,236.25
2018-04-29T17:57:15.407Z,230.63
2018-04-29T17:58:15.426Z,225.00
2018-04-29T17:59:15.398Z,219.38
2018-04-29T18:00:15.389Z,213.75
2018-04-29T18:01:15.379Z,202.50
2018-04-29T18:02:15.378Z,185.63
2018-04-29T18:03:15.375Z,174.38
2018-04-29T18:04:15.363Z,163.13
2018-04-29T18:05:15.357Z,146.25
2018-04-29T18:06:15.357Z,135.00
2018-04-29T18:07:15.357Z,123.75
2018-04-29T18:08:15.334Z,112.50
2018-04-29T18:09:15.328Z,106.88
2018-04-29T18:10:15.331Z,95.63
2018-04-29T18:11:15.314Z,90.00
2018-04-29T18:12:15.309Z,90.00
2018-04-29T18:13:15.315Z,84.38
2018-04-29T18:14:15.302Z,84.38
2018-04-29T18:15:15.280Z,78.75
2018-04-29T18:16:15.283Z,73.13
2018-04-29T18:17:15.272Z,73.13
2018-04-29T18:18:15.266Z,67.50
2018-04-29T18:19:15.255Z,67.50
2018-04-29T18:20:15.251Z,61.88
2018-04-29T18:21:15.280Z,56.25
2018-04-29T18:22:15.265Z,56.25
2018-04-29T18:23:15.237Z,50.63
2018-04-29T18:24:15.224Z,45.00
2018-04-29T18:25:15.214Z,45.00
2018-04-29T18:26:15.209Z,39.38
2018-04-29T18:27:15.195Z,39.38
2018-04-29T18:28:15.198Z,33.75
2018-04-29T18:29:15.179Z,33.75
2018-04-29T18:30:15.175Z,28.13
2018-04-29T18:31:15.163Z,28.13
2018-04-29T18:32:15.151Z,22.50
2018-04-29T18:33:15.158Z,22.50
2018-04-29T18:34:15.156Z,16.88
2018-04-29T18:35:15.128Z,16.88
2018-04-29T18:36:15.120Z,16.88
2018-04-29T18:37:15.116Z,11.25
2018-04-29T18:38:15.105Z,11.25
2018-04-29T18:39:15.096Z,11.25
2018-04-29T18:40:15.080Z,11.25
2018-04-29T18:41:15.074Z,5.63
2018-04-29T18:42:15.078Z,5.63
2018-04-29T18:43:15.068Z,5.63
2018-04-29T18:44:15.052Z,5.63
2018-04-29T18:45:15.042Z,5.63
2018-04-29T18:46:15.027Z,5.63
2018-04-29T18:47:15.017Z,0.00
2018-04-29T18:48:15.016Z,0.00
2018-04-29T18:49:15.013Z,0.00
2018-04-29T18:50:14.999Z,0.00
2018-04-29T18:51:15.081Z,0.00
2018-04-29T18:52:14.976Z,0.00
2018-04-29T18:53:14.959Z,0.00
2018-04-29T18:54:14.947Z,0.00
2018-04-29T18:55:14.936Z,0.00
2018-04-29T18:56:14.980Z,0.00
2018-04-29T18:57:14.927Z,0.00
2018-04-29T18:58:14.914Z,0.00
2018-04-29T18:59:14.908Z,0.00
2018-04-29T19:00:14.888Z,0.00
2018-04-29T19:01:14.909Z,0.00
2018-04-29T19:02:14.870Z,0.00
2018-04-29T19:03:14.873Z,0.00
2018-04-29T19:04:14.860Z,0.00
2018-04-29T19:05:14.837Z,0.00
2018-04-29T19:06:14.831Z,0.00
2018-04-29T19:07:14.828Z,0.00
2018-04-29T19:08:14.811Z,0.00
2018-04-29T19:09:14.802Z,0.00
2018-04-29T19:10:14.789Z,0.00
2018-04-29T19:11:14.775Z,0.00
2018-04-29T19:12:14.760Z,0.00
2018-04-29T19:13:14.753Z,0.00
2018-04-29T19:14:14.759Z,0.00
2018-04-29T19:15:14.735Z,0.00
2018-04-29T19:16:14.719Z,0.00
2018-04-29T19:17:14.710Z,0.00
2018-04-29T19:18:14.709Z,0.00
2018-04-29T19:19:14.683Z,0.00
2018-04-29T19:20:14.672Z,0.00
2018-04-29T19:21:14.656Z,0.00
2018-04-29T19:22:14.649Z,0.00
2018-04-29T19:23:14.636Z,0.00
2018-04-29T19:24:14.909Z,0.00
2018-04-29T19:25:14.614Z,0.00
2018-04-29T19:26:14.607Z,0.00
2018-04-29T19:27:14.591Z,0.00
2018-04-29T19:28:14.582Z,0.00
2018-04-29T19:29:14.580Z,0.00
2018-04-29T19:30:14.582Z,0.00
2018-04-29T19:31:14.573Z,0.00
2018-04-29T19:32:14.534Z,0.00
2018-04-29T19:33:14.563Z,0.00
2018-04-29T19:34:14.544Z,0.00
2018-04-29T19:35:14.515Z,0.00
2018-04-29T19:36:14.492Z,0.00
2018-04-29T19:37:14.495Z,0.00
2018-04-29T19:38:14.471Z,0.00
2018-04-29T19:39:14.455Z,0.00
2018-04-29T19:40:14.458Z,0.00
2018-04-29T19:41:14.436Z,0.00
2018-04-29T19:42:14.420Z,0.00
2018-04-29T19:43:14.404Z,0.00
2018-04-29T19:44:14.401Z,0.00
2018-04-29T19:45:14.602Z,0.00
2018-04-29T19:46:14.382Z,0.00
2018-04-29T19:47:14.372Z,0.00
2018-04-29T19:48:14.350Z,0.00
2018-04-29T19:49:14.345Z,0.00
2018-04-29T19:50:14.330Z,0.00
2018-04-29T19:51:14.311Z,0.00
2018-04-29T19:52:14.302Z,0.00
2018-04-29T19:53:14.289Z,0.00
2018-04-29T19:54:14.282Z,0.00
2018-04-29T19:55:14.337Z,0.00
2018-04-29T19:56:14.283Z,0.00
2018-04-29T19:57:14.243Z,0.00
2018-04-29T19:58:14.236Z,0.00
2018-04-29T19:59:14.220Z,0.00
2018-04-29T20:00:14.223Z,0.00
2018-04-29T20:01:14.283Z,0.00
2018-04-29T20:02:14.185Z,0.00
2018-04-29T20:03:14.182Z,0.00
2018-04-29T20:04:14.181Z,0.00
2018-04-29T20:05:14.147Z,0.00
2018-04-29T20:06:14.163Z,0.00
2018-04-29T20:07:14.118Z,0.00
2018-04-29T20:08:14.109Z,0.00
2018-04-29T20:09:14.106Z,0.00
2018-04-29T20:10:14.124Z,0.00
2018-04-29T20:11:14.106Z,0.00
2018-04-29T20:12:14.058Z,0.00
2018-04-29T20:13:14.096Z,0.00
2018-04-29T20:14:14.037Z,0.00
2018-04-29T20:15:14.018Z,0.00
2018-04-29T20:16:14.011Z,0.00
2018-04-29T20:17:13.998Z,0.00
2018-04-29T20:18:13.988Z,0.00
2018-04-29T20:19:13.978Z,0.00
2018-04-29T20:20:13.972Z,0.00
2018-04-29T20:21:13.943Z,0.00
2018-04-29T20:22:13.934Z,0.00
2018-04-29T20:23:13.959Z,0.00
2018-04-29T20:24:13.916Z,0.00
2018-04-29T20:25:13.925Z,0.00
2018-04-29T20:26:13.902Z,0.00
2018-04-29T20:27:13.902Z,0.00
2018-04-29T20:28:13.860Z,0.00
2018-04-29T20:29:13.846Z,0.00
2018-04-29T20:30:13.834Z,0.00
2018-04-29T20:31:13.824Z,0.00
2018-04-29T20:32:13.821Z,0.00
2018-04-29T20:33:13.815Z,0.00
2018-04-29T20:34:13.785Z,0.00
2018-04-29T20:35:13.771Z,0.00
2018-04-29T20:36:13.774Z,0.00
2018-04-29T20:37:13.747Z,0.00
2018-04-29T20:38:13.728Z,0.00
2018-04-29T20:39:13.750Z,0.00
2018-04-29T20:40:13.715Z,0.00
2018-04-29T20:41:13.702Z,0.00
2018-04-29T20:42:13.706Z,0.00
2018-04-29T20:43:13.681Z,0.00
2018-04-29T20:44:13.669Z,0.00
2018-04-29T20:45:13.666Z,0.00
2018-04-29T20:46:13.640Z,0.00
2018-04-29T20:47:13.644Z,0.00
2018-04-29T20:48:13.653Z,0.00
2018-04-29T20:49:13.602Z,0.00
2018-04-29T20:50:13.590Z,0.00
2018-04-29T20:51:13.577Z,0.00
2018-04-29T20:52:13.572Z,0.00
2018-04-29T20:53:13.555Z,0.00
2018-04-29T20:54:13.551Z,0.00
2018-04-29T20:55:13.578Z,0.00
2018-04-29T20:56:13.577Z,0.00
2018-04-29T20:57:13.548Z,0.00
2018-04-29T20:58:13.529Z,0.00
2018-04-29T20:59:13.494Z,0.00
2018-04-29T21:00:13.480Z,0.00
2018-04-29T21:01:13.491Z,0.00